Belleair, FL (33756)

2:18 PM EDT on April 28, 2015 (GMT -0400)
South Greenwood | | Change Station
CLOSE
Current Station
Personal Weather Station
Location: Clearwater, FL
Elevation: 40 ft
Nearby Weather Stations

Elev 40 ft 27.94 °N, 82.79 °W | Updated 22 seconds ago

Clear
Clear
75.9 °F
Feels Like 77 °F
N
7.0
Wind Variable Wind from SSE
Gusts 14.0 mph

Today
High -- | Low -- °F
--% Chance of Precip.
Yesterday
High -- | Low -- °F
Precip. -- in
6:54 AM 8:03 PM
Waxing Gibbous, 75% visible
Pressure 29.74 in
Visibility 10.0 miles
Clouds Clear
Heat Index 77 °F
Dew Point 68 °F
Humidity 75%
Rainfall 0.00 in
Snow Depth Not available.
UV 15 out of 12
Pollen .80 out of 12
Air Quality Not available.
Flu Activity Local Activity
METAR KPIE 281753Z 13013KT 10SM CLR 24/19 A2974 RMK AO2 RAE03 SLP070 P0000 60093 T02440194 10244 20200 58058

More Conditions Fewer Conditions

Pressure 29.74 in
Visibility 10.0 miles
Clouds Clear
Heat Index 77 °F
Dew Point 68 °F
Humidity 75%
Rainfall 0.00 in
Snow Depth Not available.
UV 15 out of 12
Pollen .80 out of 12
Air Quality Not available.
Flu Activity Local Activity
METAR KPIE 281753Z 13013KT 10SM CLR 24/19 A2974 RMK AO2 RAE03 SLP070 P0000 60093 T02440194 10244 20200 58058

More Conditions Fewer Conditions

10-Day Weather Forecast

Almanac

Astronomy

Apr. 28, 2015 Rise Set
Actual Time
Civil Twilight
Nautical Twilight
Astronomical Twilight
Moon
Length of Visible Light
Length of Day
Tomorrow will be .
, % of the Moon is Illuminated

Today's Extremes

State Highs State Lows

Community

WunderPhotos

Upload Photos

1,817,719 photos uploaded!

WunderBlogs® & News

Nearby

Air Quality

  Air Quality AQ Index Pollutant
Not available.

Snow Depth

Station Depth Elevation

Earthquake Activity

City Distance Mag. Time & Date
Minimum magnitude displayed is 2.5.

Coastal Water Temperatures

Place Temperature

Stations

Nearby Weather Stations

Station Location Temp. Windchill Dew Point Humidity Wind Precip. Elev Updated Type
                   
Flood Watch / Flood Statement
Statement as of 2:05 PM EDT on April 28, 2015

... High rip current risk is cancelled...

The National Weather Service in Tampa Bay Ruskin has cancelled
the high rip current risk.





Http://www.Weather.Gov/Tampa